createdAt,value
2022-12-14T00:00:38.320Z,15.04
2022-12-14T00:05:38.506Z,15.04
2022-12-14T00:10:36.677Z,15.85
2022-12-14T00:15:35.919Z,16.43
2022-12-14T00:20:34.154Z,16.64
2022-12-14T00:25:34.470Z,17.06
2022-12-14T00:30:33.765Z,17.57
2022-12-14T00:35:33.060Z,17.99
2022-12-14T00:40:32.378Z,18.51
2022-12-14T00:45:31.676Z,19.03
2022-12-14T00:50:32.022Z,19.45
2022-12-14T00:55:30.117Z,19.86
2022-12-14T01:00:29.420Z,20.28
2022-12-14T01:05:28.738Z,20.60
2022-12-14T01:10:29.044Z,21.01
2022-12-14T01:15:27.345Z,21.42
2022-12-14T01:20:26.682Z,21.64
2022-12-14T01:25:26.036Z,22.05
2022-12-14T01:30:26.173Z,22.38
2022-12-14T01:35:26.506Z,22.58
2022-12-14T01:40:25.767Z,23.00
2022-12-14T01:45:25.043Z,23.42
2022-12-14T01:50:22.319Z,23.63
2022-12-14T01:55:21.630Z,23.84
2022-12-14T02:00:21.907Z,24.14
2022-12-14T02:05:20.203Z,24.35
2022-12-14T02:10:19.461Z,24.57
2022-12-14T02:15:18.747Z,24.78
2022-12-14T02:20:17.079Z,24.68
2022-12-14T02:25:18.198Z,23.84
2022-12-14T02:30:17.498Z,21.97
2022-12-14T02:35:15.833Z,21.36
2022-12-14T02:40:16.142Z,21.36
2022-12-14T02:45:16.433Z,21.45
2022-12-14T02:50:14.766Z,21.56
2022-12-14T02:55:14.109Z,21.67
2022-12-14T03:00:12.417Z,21.89
2022-12-14T03:05:12.731Z,22.09
2022-12-14T03:10:11.060Z,22.41
2022-12-14T03:15:11.349Z,22.62
2022-12-14T03:20:10.615Z,22.93
2022-12-14T03:25:08.905Z,23.24
2022-12-14T03:30:09.203Z,23.45
2022-12-14T03:35:07.466Z,23.76
2022-12-14T03:40:12.866Z,23.76
2022-12-14T03:45:06.940Z,21.98
2022-12-14T03:50:06.229Z,19.81
2022-12-14T03:55:04.521Z,19.09
2022-12-14T04:00:03.831Z,19.29
2022-12-14T04:05:05.144Z,19.71
2022-12-14T04:10:03.438Z,20.02
2022-12-14T04:15:01.715Z,20.34
2022-12-14T04:20:01.030Z,20.76
2022-12-14T04:25:00.295Z,21.06
2022-12-14T04:30:00.586Z,21.48
2022-12-14T04:34:58.855Z,21.70
2022-12-14T04:40:00.143Z,22.11
2022-12-14T04:44:57.386Z,22.33
2022-12-14T04:49:57.680Z,22.54
2022-12-14T04:54:56.958Z,23.05
2022-12-14T04:59:56.233Z,23.36
2022-12-14T05:04:54.502Z,23.25
2022-12-14T05:09:54.812Z,20.65
2022-12-14T05:14:56.085Z,18.79
2022-12-14T05:19:52.389Z,17.76
2022-12-14T05:24:51.679Z,18.07
2022-12-14T05:29:50.964Z,18.58
2022-12-14T05:34:50.260Z,18.99
2022-12-14T05:39:50.544Z,19.31
2022-12-14T05:44:48.855Z,19.73
2022-12-14T05:49:49.419Z,20.25
2022-12-14T05:54:48.435Z,20.76
2022-12-14T05:59:46.773Z,21.08
2022-12-14T06:04:46.161Z,21.50
2022-12-14T06:09:45.238Z,21.81
2022-12-14T06:14:44.518Z,22.22
2022-12-14T06:19:50.058Z,22.54
2022-12-14T06:24:42.976Z,22.95
2022-12-14T06:29:42.274Z,23.36
2022-12-14T06:34:42.512Z,22.84
2022-12-14T06:39:40.923Z,18.57
2022-12-14T06:44:40.240Z,16.60
2022-12-14T06:49:39.563Z,15.57
2022-12-14T06:54:38.880Z,14.85
2022-12-14T06:59:38.191Z,14.44
2022-12-14T07:04:37.492Z,14.03
2022-12-14T07:09:36.814Z,13.62
2022-12-14T07:14:37.150Z,13.73
2022-12-14T07:19:35.468Z,13.93
2022-12-14T07:24:35.638Z,13.73
2022-12-14T07:29:35.027Z,13.52
2022-12-14T07:34:33.055Z,13.52
2022-12-14T07:39:33.356Z,13.21
2022-12-14T07:44:31.676Z,13.01
2022-12-14T07:49:33.087Z,13.01
2022-12-14T07:54:30.184Z,12.91
2022-12-14T07:59:30.507Z,12.80
2022-12-14T08:04:28.856Z,12.80
2022-12-14T08:09:28.993Z,13.10
2022-12-14T08:14:27.346Z,13.49
2022-12-14T08:19:26.494Z,13.59
2022-12-14T08:24:25.669Z,13.79
2022-12-14T08:29:25.808Z,13.98
2022-12-14T08:34:24.148Z,14.18
2022-12-14T08:39:23.430Z,14.17
2022-12-14T08:44:21.692Z,14.06
2022-12-14T08:49:26.418Z,14.36
2022-12-14T08:54:21.300Z,14.67
2022-12-14T08:59:52.097Z,15.27
2022-12-14T09:04:25.752Z,15.88
2022-12-14T09:09:20.056Z,16.19
2022-12-14T09:14:18.347Z,16.49
2022-12-14T09:19:18.679Z,15.77
2022-12-14T09:24:18.001Z,16.14
2022-12-14T09:29:16.332Z,15.25
2022-12-14T09:34:15.456Z,14.95
2022-12-14T09:39:14.806Z,14.75
2022-12-14T09:44:18.180Z,14.95
2022-12-14T09:49:13.103Z,14.73
2022-12-14T09:54:13.399Z,15.04
2022-12-14T09:59:11.694Z,14.94
2022-12-14T10:04:11.135Z,15.44
2022-12-14T10:09:10.335Z,15.95
2022-12-14T10:14:08.447Z,15.44
2022-12-14T10:19:09.194Z,15.75
2022-12-14T10:24:07.946Z,15.44
2022-12-14T10:29:08.290Z,15.12
2022-12-14T10:34:12.042Z,15.03
2022-12-14T10:39:06.732Z,14.92
2022-12-14T10:44:05.009Z,14.92
2022-12-14T10:49:06.275Z,15.12
2022-12-14T10:54:05.576Z,15.14
2022-12-14T10:59:02.849Z,15.75
2022-12-14T11:04:02.131Z,16.37
2022-12-14T11:09:01.412Z,16.88
2022-12-14T11:14:00.711Z,17.50
2022-12-14T11:19:01.012Z,18.13
2022-12-14T11:23:59.309Z,18.75
2022-12-14T11:28:58.897Z,19.37
2022-12-14T11:33:57.835Z,19.79
2022-12-14T11:38:57.043Z,20.20
2022-12-14T11:43:56.157Z,20.62
2022-12-14T11:48:56.117Z,21.13
2022-12-14T11:53:54.480Z,21.55
2022-12-14T11:58:53.640Z,21.97
2022-12-14T12:03:53.029Z,22.29
2022-12-14T12:08:52.192Z,22.70
2022-12-14T12:13:51.334Z,23.02
2022-12-14T12:18:50.496Z,23.33
2022-12-14T12:23:49.601Z,23.75
2022-12-14T12:28:49.997Z,23.96
2022-12-14T12:33:49.278Z,24.27
2022-12-14T12:38:49.849Z,24.58
2022-12-14T12:43:50.003Z,24.99
2022-12-14T12:48:46.142Z,25.21
2022-12-14T12:53:45.314Z,25.42
2022-12-14T12:58:49.042Z,25.53
2022-12-14T13:03:43.608Z,25.74
2022-12-14T13:08:42.743Z,25.95
2022-12-14T13:13:41.855Z,26.16
2022-12-14T13:18:59.636Z,26.26
2022-12-14T13:23:45.115Z,26.37
2022-12-14T13:28:40.643Z,26.48
2022-12-14T13:33:38.821Z,26.68
2022-12-14T13:38:42.016Z,26.79
2022-12-14T13:43:37.252Z,26.90
2022-12-14T13:48:36.423Z,27.01
2022-12-14T13:53:34.628Z,27.11
2022-12-14T13:58:35.827Z,27.21
2022-12-14T14:03:35.352Z,27.33
2022-12-14T14:08:39.320Z,27.42
2022-12-14T14:13:33.270Z,27.54
2022-12-14T14:18:30.868Z,27.54
2022-12-14T14:23:30.754Z,27.64
2022-12-14T14:28:29.977Z,27.64
2022-12-14T14:33:47.715Z,27.75
2022-12-14T14:38:28.966Z,27.86
2022-12-14T14:43:27.601Z,27.95
2022-12-14T14:48:27.041Z,27.97
2022-12-14T14:53:25.936Z,28.07
2022-12-14T14:58:24.119Z,28.17
2022-12-14T15:03:24.391Z,28.28
2022-12-14T15:08:23.574Z,28.28
2022-12-14T15:13:23.050Z,28.38
2022-12-14T15:18:22.208Z,28.50
2022-12-14T15:23:23.670Z,28.60
2022-12-14T15:28:21.038Z,28.80
2022-12-14T15:33:20.057Z,28.90
2022-12-14T15:38:19.243Z,28.91
2022-12-14T15:43:17.538Z,28.81
2022-12-14T15:48:17.783Z,28.81
2022-12-14T15:53:16.988Z,28.80
2022-12-14T15:58:16.213Z,28.81
2022-12-14T16:03:16.420Z,28.81
2022-12-14T16:08:14.641Z,28.81
2022-12-14T16:13:12.827Z,28.91
2022-12-14T16:18:12.066Z,28.91
2022-12-14T16:23:12.317Z,29.02
2022-12-14T16:28:11.467Z,29.13
2022-12-14T16:33:09.779Z,29.23
2022-12-14T16:38:09.997Z,29.33
2022-12-14T16:43:09.503Z,29.43
2022-12-14T16:48:07.696Z,29.55
2022-12-14T16:53:07.765Z,29.75
2022-12-14T16:58:07.154Z,29.85
2022-12-14T17:03:06.388Z,29.75
2022-12-14T17:08:04.549Z,29.44
2022-12-14T17:13:05.014Z,29.23
2022-12-14T17:18:03.162Z,29.13
2022-12-14T17:23:03.480Z,29.02
2022-12-14T17:28:01.631Z,28.91
2022-12-14T17:33:01.859Z,28.91
2022-12-14T17:38:01.396Z,28.91
2022-12-14T17:43:00.263Z,29.03
2022-12-14T17:48:18.858Z,29.13
2022-12-14T17:52:59.023Z,29.13
2022-12-14T17:57:58.454Z,29.23
2022-12-14T18:02:57.516Z,26.58
2022-12-14T18:07:56.766Z,23.37
2022-12-14T18:12:55.718Z,21.50
2022-12-14T18:17:57.427Z,19.33
2022-12-14T18:22:54.536Z,18.20
2022-12-14T18:27:53.474Z,17.07
2022-12-14T18:32:53.070Z,17.27
2022-12-14T18:37:53.006Z,16.86
2022-12-14T18:42:52.717Z,16.35
2022-12-14T18:47:50.876Z,16.14
2022-12-14T18:52:50.000Z,15.94
2022-12-14T18:57:49.505Z,15.93
2022-12-14T19:02:50.159Z,16.03
2022-12-14T19:07:48.496Z,15.52
2022-12-14T19:12:55.156Z,15.31
2022-12-14T19:17:45.085Z,15.00
2022-12-14T19:22:47.535Z,14.90
2022-12-14T19:28:25.619Z,14.79
2022-12-14T19:32:44.773Z,14.59
2022-12-14T19:38:02.974Z,14.70
2022-12-14T19:42:42.256Z,15.10
2022-12-14T19:47:42.573Z,15.00
2022-12-14T19:52:41.739Z,14.90
2022-12-14T19:57:40.528Z,14.89
2022-12-14T20:02:39.441Z,14.90
2022-12-14T20:07:43.767Z,14.89
2022-12-14T20:12:37.818Z,14.89
2022-12-14T20:17:37.977Z,14.89
2022-12-14T20:22:37.199Z,14.87
2022-12-14T20:27:40.654Z,14.97
2022-12-14T20:32:34.652Z,15.06
2022-12-14T20:37:33.854Z,15.16
2022-12-14T20:42:32.985Z,14.96
2022-12-14T20:47:32.102Z,15.36
2022-12-14T20:52:31.322Z,15.77
2022-12-14T20:57:31.140Z,15.66
2022-12-14T21:02:30.540Z,15.86
2022-12-14T21:07:28.636Z,15.86
2022-12-14T21:12:29.141Z,15.75
2022-12-14T21:17:27.099Z,15.64
2022-12-14T21:22:26.500Z,15.54
2022-12-14T21:27:25.630Z,15.44
2022-12-14T21:32:25.183Z,15.44
2022-12-14T21:37:23.171Z,15.44
2022-12-14T21:42:23.362Z,15.43
2022-12-14T21:47:22.519Z,15.53
2022-12-14T21:52:21.863Z,15.63
2022-12-14T21:57:21.181Z,15.84
2022-12-14T22:02:20.652Z,16.55
2022-12-14T22:07:20.668Z,16.54
2022-12-14T22:12:19.981Z,16.34
2022-12-14T22:17:18.227Z,16.44
2022-12-14T22:22:17.480Z,16.13
2022-12-14T22:27:16.765Z,16.03
2022-12-14T22:32:16.159Z,15.83
2022-12-14T22:37:16.349Z,15.72
2022-12-14T22:42:14.713Z,16.02
2022-12-14T22:47:13.867Z,16.02
2022-12-14T22:52:13.015Z,16.22
2022-12-14T22:57:13.135Z,16.52
2022-12-14T23:02:12.635Z,16.52
2022-12-14T23:07:11.706Z,16.52
2022-12-14T23:12:11.657Z,16.22
2022-12-14T23:17:11.120Z,16.02
2022-12-14T23:22:09.429Z,16.02
2022-12-14T23:27:09.897Z,16.42
2022-12-14T23:32:06.993Z,16.83
2022-12-14T23:37:06.309Z,17.55
2022-12-14T23:42:05.624Z,18.15
2022-12-14T23:47:06.940Z,18.67
2022-12-14T23:52:04.258Z,19.07
2022-12-14T23:57:04.562Z,18.96
